Time;durP1;ratioP1;P1;durP2;ratioP2;P2;SDS_P1;SDS_P2;PMS_P1;PMS_P2;Temp;Humidity;BMP_temperature;BMP_pressure;BME280_temperature;BME280_humidity;BME280_pressure;Samples;Min_cycle;Max_cycle;Signal;HPM_P1;HPM_P2
2023/09/04 00:00:33;;;;;;;10.45;7.60;;;13.10;99.90;;;;;;4998935;28;20061;-87
2023/09/04 00:02:59;;;;;;;9.35;6.85;;;13.10;99.90;;;;;;5003305;28;20053;-87
2023/09/04 00:05:24;;;;;;;10.25;7.72;;;13.10;99.90;;;;;;5002013;28;20053;-87
2023/09/04 00:07:50;;;;;;;8.60;7.30;;;13.00;99.90;;;;;;4981281;28;20504;-87
2023/09/04 00:10:15;;;;;;;8.55;7.45;;;13.00;99.90;;;;;;5010688;28;20033;-88
2023/09/04 00:12:41;;;;;;;9.70;8.15;;;13.00;99.90;;;;;;5009476;28;20033;-86
2023/09/04 00:15:07;;;;;;;9.48;7.90;;;13.00;99.90;;;;;;4998913;28;20018;-86
2023/09/04 00:17:33;;;;;;;9.30;7.55;;;13.00;99.90;;;;;;5014461;28;20034;-86
2023/09/04 00:19:58;;;;;;;8.10;7.20;;;13.00;99.90;;;;;;5007354;28;20611;-87
2023/09/04 00:22:27;;;;;;;9.20;7.82;;;13.00;99.90;;;;;;5005345;28;20018;-87
2023/09/04 00:24:53;;;;;;;8.35;7.30;;;12.90;99.90;;;;;;5007506;28;20109;-86
2023/09/04 00:27:19;;;;;;;8.85;7.43;;;12.90;99.90;;;;;;4993741;28;20041;-87
2023/09/04 00:29:45;;;;;;;10.02;7.43;;;12.90;99.90;;;;;;4996829;28;20034;-87
2023/09/04 00:32:11;;;;;;;9.35;7.57;;;12.90;99.90;;;;;;4992931;28;20505;-87
2023/09/04 00:34:37;;;;;;;8.88;6.95;;;12.90;99.90;;;;;;4995554;28;20379;-87
2023/09/04 00:37:04;;;;;;;7.70;6.75;;;12.90;99.90;;;;;;4996627;28;20076;-87
2023/09/04 00:39:29;;;;;;;9.65;7.70;;;12.90;99.90;;;;;;4993910;28;20031;-87
2023/09/04 00:41:55;;;;;;;10.25;7.57;;;12.90;99.90;;;;;;5017129;28;20090;-87
2023/09/04 00:44:20;;;;;;;9.35;8.23;;;12.80;99.90;;;;;;5010419;28;20141;-88
2023/09/04 00:46:46;;;;;;;8.98;7.28;;;12.80;99.90;;;;;;4998340;28;20034;-87
2023/09/04 00:49:12;;;;;;;7.95;7.03;;;12.80;99.90;;;;;;4991865;28;20478;-87
2023/09/04 00:51:39;;;;;;;7.15;6.45;;;12.80;99.90;;;;;;5004858;28;20083;-86
2023/09/04 00:54:07;;;;;;;7.97;7.18;;;12.70;99.90;;;;;;4988395;28;20035;-87
2023/09/04 00:56:33;;;;;;;8.40;7.47;;;12.70;99.90;;;;;;4983059;28;20112;-87
2023/09/04 00:58:59;;;;;;;10.52;8.13;;;12.80;99.90;;;;;;5001127;28;20426;-87
2023/09/04 01:01:26;;;;;;;10.25;7.25;;;12.70;99.90;;;;;;4983280;28;20034;-88
2023/09/04 01:03:54;;;;;;;8.48;7.45;;;12.70;99.90;;;;;;4997770;28;20057;-87
2023/09/04 01:06:19;;;;;;;8.88;7.93;;;12.70;99.90;;;;;;4996390;28;20022;-88
2023/09/04 01:08:45;;;;;;;11.15;8.48;;;12.60;99.90;;;;;;4997626;28;20030;-87
2023/09/04 01:11:36;;;;;;;10.93;8.75;;;12.60;99.90;;;;;;5005250;28;20026;-88
2023/09/04 01:14:10;;;;;;;10.63;8.98;;;12.60;99.90;;;;;;4998450;28;20037;-87
2023/09/04 01:16:38;;;;;;;11.23;9.07;;;12.60;99.90;;;;;;4999311;28;20022;-88
2023/09/04 01:19:04;;;;;;;11.13;8.35;;;12.60;99.90;;;;;;5010234;28;20022;-87
2023/09/04 01:21:38;;;;;;;10.30;7.88;;;12.60;99.90;;;;;;5011870;28;20026;-87
2023/09/04 01:24:04;;;;;;;9.52;7.93;;;12.50;99.90;;;;;;5018741;28;20015;-89
2023/09/04 01:26:39;;;;;;;7.78;6.80;;;12.50;99.90;;;;;;5014786;28;20106;-89
2023/09/04 01:29:23;;;;;;;7.87;6.97;;;12.40;99.90;;;;;;5000400;28;20025;-87
2023/09/04 01:32:06;;;;;;;9.63;8.43;;;12.40;99.90;;;;;;4995363;28;20301;-87
2023/09/04 01:34:37;;;;;;;9.23;7.60;;;12.40;99.90;;;;;;4991461;28;20030;-88
2023/09/04 01:37:04;;;;;;;8.15;7.25;;;12.40;99.90;;;;;;5000834;28;20025;-87
2023/09/04 01:39:30;;;;;;;8.40;7.32;;;12.30;99.90;;;;;;4999929;28;20085;-88
2023/09/04 01:41:56;;;;;;;7.75;6.90;;;12.30;99.90;;;;;;5001715;28;20046;-87
2023/09/04 01:44:22;;;;;;;9.27;7.25;;;12.30;99.90;;;;;;5001627;28;20026;-89
2023/09/04 01:46:48;;;;;;;7.10;6.13;;;12.30;99.90;;;;;;5013241;28;20091;-87
2023/09/04 01:49:14;;;;;;;8.05;7.25;;;12.30;99.90;;;;;;5022271;28;20149;-88
2023/09/04 01:51:39;;;;;;;7.03;6.32;;;12.30;99.90;;;;;;5029513;28;20089;-88
2023/09/04 01:54:05;;;;;;;6.15;5.55;;;12.30;99.90;;;;;;5027839;28;20073;-88
2023/09/04 01:56:31;;;;;;;8.25;6.38;;;12.20;99.90;;;;;;5007997;28;20090;-88
2023/09/04 01:58:57;;;;;;;7.88;6.68;;;12.20;99.90;;;;;;5002919;28;20023;-87
2023/09/04 02:01:22;;;;;;;7.63;6.43;;;12.20;99.90;;;;;;5002243;28;20057;-88
2023/09/04 02:03:58;;;;;;;9.00;6.50;;;12.20;99.90;;;;;;5002046;28;20172;-87
2023/09/04 02:06:26;;;;;;;7.07;6.38;;;12.20;99.90;;;;;;4983123;28;20294;-87
2023/09/04 02:08:52;;;;;;;7.32;6.20;;;12.10;99.90;;;;;;4983020;28;20034;-88
2023/09/04 02:11:18;;;;;;;7.30;6.15;;;12.10;99.90;;;;;;4999736;28;20022;-88
2023/09/04 02:13:46;;;;;;;8.80;7.05;;;12.10;99.90;;;;;;4985212;28;20072;-88
2023/09/04 02:16:12;;;;;;;10.23;8.07;;;12.10;99.90;;;;;;5001188;28;20027;-88
2023/09/04 02:18:38;;;;;;;9.60;7.82;;;12.00;99.90;;;;;;5000168;28;20022;-87
2023/09/04 02:21:05;;;;;;;9.63;8.35;;;12.10;99.90;;;;;;5001655;28;20018;-88
2023/09/04 02:23:30;;;;;;;9.75;7.70;;;12.00;99.90;;;;;;5000309;28;20409;-88
2023/09/04 02:25:56;;;;;;;10.00;7.95;;;12.00;99.90;;;;;;5000377;28;20037;-87
2023/09/04 02:28:22;;;;;;;8.35;6.68;;;12.00;99.90;;;;;;4999498;28;20042;-88
2023/09/04 02:30:47;;;;;;;9.35;8.35;;;12.00;99.90;;;;;;5009734;28;20030;-87
2023/09/04 02:33:13;;;;;;;9.60;7.53;;;12.00;99.90;;;;;;5020084;28;20030;-87
2023/09/04 02:35:39;;;;;;;9.10;7.43;;;12.00;99.90;;;;;;5015930;28;20037;-87
2023/09/04 02:38:04;;;;;;;10.02;8.32;;;12.00;99.90;;;;;;5016699;28;20022;-87
2023/09/04 02:40:30;;;;;;;9.35;8.10;;;12.00;99.90;;;;;;5017108;28;20033;-88
2023/09/04 02:42:58;;;;;;;9.55;8.60;;;12.00;99.90;;;;;;5017380;28;20029;-87
2023/09/04 02:45:24;;;;;;;12.05;9.23;;;12.00;99.90;;;;;;5014788;28;20117;-87
2023/09/04 02:47:50;;;;;;;11.73;8.52;;;12.00;99.90;;;;;;4999655;28;20089;-87
2023/09/04 02:50:16;;;;;;;9.10;7.85;;;11.90;99.90;;;;;;4999207;28;20023;-88
2023/09/04 02:52:41;;;;;;;11.07;8.27;;;11.90;99.90;;;;;;5000656;28;20478;-88
2023/09/04 02:55:08;;;;;;;9.20;7.90;;;11.90;99.90;;;;;;5001029;28;20038;-87
2023/09/04 02:57:34;;;;;;;10.20;8.63;;;11.90;99.90;;;;;;5000335;28;20022;-87
2023/09/04 03:00:01;;;;;;;10.05;8.05;;;11.90;99.90;;;;;;5001955;28;20585;-88
2023/09/04 03:02:26;;;;;;;8.35;7.55;;;11.90;99.90;;;;;;5005835;28;20026;-89
2023/09/04 03:04:56;;;;;;;10.98;7.75;;;11.90;99.90;;;;;;5001115;28;20052;-87
2023/09/04 03:07:26;;;;;;;8.18;7.10;;;11.80;99.90;;;;;;4999441;28;20129;-88
2023/09/04 03:09:56;;;;;;;8.75;6.72;;;11.90;99.90;;;;;;5002951;28;20090;-88
2023/09/04 03:12:26;;;;;;;8.57;7.68;;;11.80;99.90;;;;;;5007260;28;20035;-87
2023/09/04 03:14:57;;;;;;;9.07;8.15;;;11.80;99.90;;;;;;4998664;28;20041;-87
2023/09/04 03:17:24;;;;;;;9.10;7.65;;;11.80;99.90;;;;;;4997957;28;20081;-87
2023/09/04 03:19:53;;;;;;;9.93;7.93;;;11.70;99.90;;;;;;4998341;28;20046;-87
2023/09/04 03:22:20;;;;;;;8.18;7.18;;;11.70;99.90;;;;;;4997737;28;20394;-88
2023/09/04 03:24:46;;;;;;;8.10;7.22;;;11.80;99.90;;;;;;4999370;28;20062;-87
2023/09/04 03:27:12;;;;;;;8.18;7.13;;;11.70;99.90;;;;;;5007030;28;20034;-87
2023/09/04 03:29:38;;;;;;;7.30;6.35;;;11.70;99.90;;;;;;4998170;28;20030;-87
2023/09/04 03:32:04;;;;;;;8.20;7.35;;;11.70;99.90;;;;;;4997996;28;20090;-88
2023/09/04 03:34:29;;;;;;;7.63;6.60;;;11.70;99.90;;;;;;4998748;28;20077;-87
2023/09/04 03:36:55;;;;;;;8.30;7.03;;;11.70;99.90;;;;;;4998108;28;20030;-87
2023/09/04 03:39:21;;;;;;;8.48;7.20;;;11.70;99.90;;;;;;4998548;28;20042;-87
2023/09/04 03:41:47;;;;;;;7.63;6.57;;;11.70;99.90;;;;;;4997938;28;20031;-87
2023/09/04 03:44:13;;;;;;;7.57;6.70;;;11.70;99.90;;;;;;4999677;28;20035;-87
2023/09/04 03:46:38;;;;;;;8.27;6.13;;;11.60;99.90;;;;;;5016254;28;20006;-89
2023/09/04 03:49:04;;;;;;;8.45;7.13;;;11.60;99.90;;;;;;5018027;28;20018;-89
2023/09/04 03:51:30;;;;;;;8.40;6.97;;;11.60;99.90;;;;;;5010536;28;20026;-88
2023/09/04 03:53:58;;;;;;;8.95;7.22;;;11.60;99.90;;;;;;5001476;28;20049;-88
2023/09/04 03:56:24;;;;;;;9.07;7.45;;;11.60;99.90;;;;;;5002327;28;20033;-87
2023/09/04 03:58:52;;;;;;;8.75;7.45;;;11.60;99.90;;;;;;4999875;28;20042;-87
2023/09/04 04:01:18;;;;;;;7.68;6.80;;;11.60;99.90;;;;;;4998251;28;20042;-87
2023/09/04 04:03:44;;;;;;;8.60;7.40;;;11.50;99.90;;;;;;4995537;28;20026;-87
2023/09/04 04:06:13;;;;;;;8.18;7.10;;;11.50;99.90;;;;;;4995246;28;20026;-87
2023/09/04 04:08:39;;;;;;;7.55;6.78;;;11.50;99.90;;;;;;4995223;28;20026;-87
2023/09/04 04:11:05;;;;;;;8.23;6.85;;;11.50;99.90;;;;;;4994479;28;20477;-88
2023/09/04 04:13:31;;;;;;;7.25;6.50;;;11.50;99.90;;;;;;4994895;28;20462;-87
2023/09/04 04:15:59;;;;;;;8.80;6.57;;;11.50;99.90;;;;;;5007516;28;20046;-87
2023/09/04 04:18:26;;;;;;;7.45;6.65;;;11.50;99.90;;;;;;4992896;28;20022;-87
2023/09/04 04:20:52;;;;;;;7.90;7.05;;;11.40;99.90;;;;;;4994468;28;20031;-87
2023/09/04 04:23:18;;;;;;;12.40;7.00;;;11.40;99.90;;;;;;4994391;28;20493;-87
2023/09/04 04:25:43;;;;;;;7.50;6.70;;;11.40;99.90;;;;;;4992999;28;20141;-88
2023/09/04 04:28:09;;;;;;;8.35;7.53;;;11.40;99.90;;;;;;4996750;28;20026;-88
2023/09/04 04:30:35;;;;;;;7.45;6.40;;;11.40;99.90;;;;;;4994003;28;20042;-87
2023/09/04 04:33:02;;;;;;;7.95;6.68;;;11.40;99.90;;;;;;5000886;28;20034;-89
2023/09/04 04:35:27;;;;;;;7.47;6.75;;;11.40;99.90;;;;;;4993836;28;20081;-88
2023/09/04 04:37:53;;;;;;;7.53;6.82;;;11.40;99.90;;;;;;4982651;28;20505;-87
2023/09/04 04:40:20;;;;;;;6.82;5.97;;;11.40;99.90;;;;;;4997820;28;20374;-87
2023/09/04 04:42:46;;;;;;;7.80;7.00;;;11.40;99.90;;;;;;4997676;28;20022;-88
2023/09/04 04:45:12;;;;;;;7.03;6.30;;;11.40;99.90;;;;;;5006707;28;20022;-88
2023/09/04 04:47:37;;;;;;;7.43;6.68;;;11.40;99.90;;;;;;5007587;28;20052;-88
2023/09/04 04:50:03;;;;;;;7.82;6.68;;;11.40;99.90;;;;;;4999777;28;20057;-88
2023/09/04 04:52:29;;;;;;;8.18;6.95;;;11.40;99.90;;;;;;5001452;28;20113;-87
2023/09/04 04:54:55;;;;;;;8.45;7.53;;;11.40;99.90;;;;;;5009759;28;20080;-87
2023/09/04 04:57:21;;;;;;;8.40;7.22;;;11.40;99.90;;;;;;5001033;28;20106;-87
2023/09/04 04:59:46;;;;;;;8.15;7.35;;;11.40;99.90;;;;;;4997283;28;20022;-88
2023/09/04 05:02:13;;;;;;;8.05;7.25;;;11.40;99.90;;;;;;4999189;28;20040;-89
2023/09/04 05:04:45;;;;;;;8.73;7.88;;;11.40;99.90;;;;;;5000649;28;20062;-88
2023/09/04 05:07:10;;;;;;;7.40;6.68;;;11.40;99.90;;;;;;4997469;28;20090;-90
2023/09/04 05:09:37;;;;;;;9.63;7.07;;;11.40;99.90;;;;;;4994066;28;20054;-86
2023/09/04 05:12:03;;;;;;;8.25;7.45;;;11.40;99.90;;;;;;4994666;28;20057;-89
2023/09/04 05:14:29;;;;;;;9.93;8.45;;;11.40;99.90;;;;;;4993620;28;20041;-87
2023/09/04 05:16:55;;;;;;;9.13;8.00;;;11.40;99.90;;;;;;4998384;28;20022;-87
2023/09/04 05:19:21;;;;;;;9.32;7.78;;;11.40;99.90;;;;;;5002538;28;20025;-88
2023/09/04 05:21:47;;;;;;;9.48;8.50;;;11.50;99.90;;;;;;5009730;28;20045;-88
2023/09/04 05:24:13;;;;;;;11.40;9.13;;;11.50;99.90;;;;;;4986882;28;20022;-87
2023/09/04 05:26:39;;;;;;;10.95;9.13;;;11.50;99.90;;;;;;4995471;28;20034;-87
2023/09/04 05:29:05;;;;;;;8.93;8.02;;;11.50;99.90;;;;;;4998745;28;20023;-87
2023/09/04 05:31:30;;;;;;;13.15;9.88;;;11.50;99.90;;;;;;4991821;28;20042;-88
2023/09/04 05:33:56;;;;;;;12.40;8.13;;;11.60;99.90;;;;;;4987164;28;20053;-87
2023/09/04 05:36:22;;;;;;;12.27;9.27;;;11.60;99.90;;;;;;5004449;28;20033;-87
2023/09/04 05:38:47;;;;;;;9.43;8.15;;;11.60;99.90;;;;;;4999473;28;20392;-87
2023/09/04 05:41:14;;;;;;;11.27;8.27;;;11.60;99.90;;;;;;4996610;28;20503;-87
2023/09/04 05:43:39;;;;;;;14.93;9.75;;;11.60;99.90;;;;;;4994923;28;20061;-88
2023/09/04 05:46:05;;;;;;;10.48;8.77;;;11.60;99.90;;;;;;4997432;28;20432;-86
2023/09/04 05:48:33;;;;;;;12.15;9.35;;;11.70;99.90;;;;;;4999071;28;20085;-87
2023/09/04 05:50:58;;;;;;;12.60;9.52;;;11.70;99.90;;;;;;4992248;28;20026;-87
2023/09/04 05:53:24;;;;;;;13.48;9.55;;;11.80;99.90;;;;;;4993025;28;20521;-87
2023/09/04 05:56:10;;;;;;;13.13;10.18;;;11.80;99.90;;;;;;4996405;28;20528;-88
2023/09/04 05:58:43;;;;;;;13.52;10.55;;;11.80;99.90;;;;;;5001022;28;20061;-88
2023/09/04 06:01:09;;;;;;;12.57;10.82;;;11.90;99.90;;;;;;5002423;28;20049;-88
2023/09/04 06:03:35;;;;;;;13.20;10.70;;;11.90;99.90;;;;;;5009975;28;20068;-88
2023/09/04 06:06:00;;;;;;;15.27;11.20;;;12.00;99.90;;;;;;5007567;28;20682;-89
2023/09/04 06:08:26;;;;;;;14.63;12.68;;;12.10;99.90;;;;;;5003181;28;20578;-89
2023/09/04 06:10:52;;;;;;;13.50;12.07;;;12.10;99.90;;;;;;4996121;28;20117;-88
2023/09/04 06:13:17;;;;;;;14.93;12.43;;;12.20;99.90;;;;;;4991581;28;20465;-87
2023/09/04 06:15:43;;;;;;;15.60;12.68;;;12.30;99.90;;;;;;5004419;28;20033;-89
2023/09/04 06:18:08;;;;;;;16.35;12.48;;;12.40;99.90;;;;;;4992785;28;20122;-89
2023/09/04 06:20:34;;;;;;;20.35;13.63;;;12.50;99.90;;;;;;4991979;28;20026;-88
2023/09/04 06:23:01;;;;;;;16.55;12.27;;;12.60;99.90;;;;;;5010164;28;20354;-89
2023/09/04 06:25:27;;;;;;;16.45;13.02;;;12.60;99.90;;;;;;5003376;28;20026;-89
2023/09/04 06:27:55;;;;;;;14.45;11.85;;;12.70;99.90;;;;;;4993040;28;20169;-86
2023/09/04 06:30:21;;;;;;;19.65;12.75;;;12.90;99.90;;;;;;5003799;28;20027;-87
2023/09/04 06:32:46;;;;;;;19.40;13.30;;;13.00;99.90;;;;;;4994861;28;20046;-87
2023/09/04 06:35:12;;;;;;;16.30;12.52;;;13.10;99.90;;;;;;4998189;28;20027;-87
2023/09/04 06:37:38;;;;;;;14.20;12.52;;;13.20;99.90;;;;;;5008375;28;20450;-86
2023/09/04 06:40:04;;;;;;;16.63;12.80;;;13.30;99.90;;;;;;4998595;28;20023;-87
2023/09/04 06:42:29;;;;;;;18.05;12.77;;;13.40;99.90;;;;;;5011557;28;20022;-87
2023/09/04 06:44:55;;;;;;;15.65;11.13;;;13.50;99.90;;;;;;5012314;28;20025;-87
2023/09/04 06:47:21;;;;;;;18.85;13.55;;;13.60;99.90;;;;;;4998580;28;20054;-86
2023/09/04 06:49:46;;;;;;;16.05;12.00;;;13.70;99.90;;;;;;5004770;28;20124;-87
2023/09/04 06:52:12;;;;;;;13.98;10.98;;;13.80;99.90;;;;;;5007399;28;20060;-86
2023/09/04 06:54:37;;;;;;;17.08;12.82;;;13.90;99.90;;;;;;5001614;28;20138;-87
2023/09/04 06:57:04;;;;;;;17.27;11.25;;;14.00;99.90;;;;;;5001100;28;20027;-87
2023/09/04 06:59:29;;;;;;;15.43;12.05;;;14.10;99.90;;;;;;4995280;28;20030;-87
2023/09/04 07:01:55;;;;;;;16.63;12.75;;;14.10;99.90;;;;;;4992741;28;20097;-87
2023/09/04 07:04:21;;;;;;;16.17;11.95;;;14.20;99.90;;;;;;5011346;28;20042;-87
2023/09/04 07:06:46;;;;;;;15.70;12.52;;;14.30;99.90;;;;;;5006702;28;20042;-88
2023/09/04 07:09:12;;;;;;;14.63;11.15;;;14.50;99.90;;;;;;5006063;28;20025;-88
2023/09/04 07:11:37;;;;;;;13.15;11.35;;;14.60;99.90;;;;;;4995341;28;20029;-87
2023/09/04 07:14:03;;;;;;;13.85;10.70;;;14.70;99.90;;;;;;4991662;28;20087;-88
2023/09/04 07:16:31;;;;;;;15.55;11.15;;;14.90;99.90;;;;;;4996867;28;20077;-87
2023/09/04 07:18:57;;;;;;;12.75;9.85;;;15.10;99.90;;;;;;5001767;28;20058;-88
2023/09/04 07:21:22;;;;;;;11.95;10.10;;;15.20;99.90;;;;;;4984455;28;20065;-88
2023/09/04 07:23:48;;;;;;;11.65;9.55;;;15.40;99.90;;;;;;4981406;28;20026;-87
2023/09/04 07:26:14;;;;;;;11.65;9.88;;;15.60;99.90;;;;;;4999803;28;20023;-87
2023/09/04 07:28:39;;;;;;;10.32;9.25;;;15.70;99.90;;;;;;5006222;28;20122;-87
2023/09/04 07:31:19;;;;;;;10.93;8.55;;;15.90;99.90;;;;;;4974279;28;20042;-87
2023/09/04 07:33:47;;;;;;;9.80;8.13;;;16.10;99.90;;;;;;4961915;28;20026;-85
2023/09/04 07:36:13;;;;;;;8.38;7.47;;;16.20;99.90;;;;;;4980687;28;20049;-87
2023/09/04 07:38:39;;;;;;;7.78;7.00;;;16.50;99.90;;;;;;4978740;28;20047;-87
2023/09/04 07:41:04;;;;;;;6.28;5.68;;;16.70;99.90;;;;;;4976187;28;20042;-87
2023/09/04 07:43:31;;;;;;;8.18;6.43;;;16.90;99.90;;;;;;4976632;28;20339;-88
2023/09/04 07:45:57;;;;;;;7.00;5.88;;;17.20;99.90;;;;;;4977565;28;20023;-85
2023/09/04 07:48:23;;;;;;;6.05;4.90;;;17.30;99.90;;;;;;4987370;28;20026;-88
2023/09/04 07:50:49;;;;;;;5.13;4.63;;;17.50;99.90;;;;;;4973613;28;20129;-87
2023/09/04 07:53:15;;;;;;;6.28;4.00;;;17.70;99.90;;;;;;4974734;28;20113;-87
2023/09/04 07:55:42;;;;;;;5.72;5.20;;;17.90;99.90;;;;;;4987922;28;20382;-87
2023/09/04 07:58:08;;;;;;;5.25;4.75;;;18.00;99.90;;;;;;4990947;28;20042;-87
2023/09/04 08:00:34;;;;;;;3.97;3.67;;;18.20;99.90;;;;;;4983610;28;20645;-87
2023/09/04 08:03:00;;;;;;;3.60;3.30;;;18.30;99.90;;;;;;4967124;28;20487;-87
2023/09/04 08:05:25;;;;;;;3.88;3.50;;;18.40;99.90;;;;;;4969534;28;20074;-87
2023/09/04 08:07:51;;;;;;;5.95;3.35;;;18.50;99.90;;;;;;4974307;28;20642;-88
2023/09/04 08:10:16;;;;;;;4.40;3.53;;;18.60;99.90;;;;;;4973619;28;20087;-87
2023/09/04 08:12:42;;;;;;;3.08;2.55;;;18.70;99.90;;;;;;4987673;28;20431;-86
2023/09/04 08:15:10;;;;;;;3.35;2.97;;;18.80;99.90;;;;;;4977482;28;20058;-86
2023/09/04 08:17:36;;;;;;;4.35;3.15;;;18.80;99.90;;;;;;4980187;28;20070;-87
2023/09/04 08:20:02;;;;;;;3.42;3.10;;;19.00;99.90;;;;;;4978657;28;20033;-85
2023/09/04 08:22:27;;;;;;;3.10;2.80;;;19.00;99.90;;;;;;4987158;28;20486;-85
2023/09/04 08:24:56;;;;;;;2.45;2.25;;;19.10;99.90;;;;;;4967118;28;20050;-86
2023/09/04 08:27:22;;;;;;;3.83;2.28;;;19.10;99.90;;;;;;4975786;28;20018;-88
2023/09/04 08:29:50;;;;;;;3.78;2.83;;;19.10;99.90;;;;;;4968608;28;20450;-88
2023/09/04 08:32:16;;;;;;;2.78;2.22;;;19.20;99.90;;;;;;4953804;28;20165;-86
2023/09/04 08:34:42;;;;;;;3.25;1.77;;;19.20;99.90;;;;;;4981919;28;20646;-86
2023/09/04 08:37:07;;;;;;;3.25;2.22;;;19.20;99.90;;;;;;4972858;28;20023;-85
2023/09/04 08:39:33;;;;;;;1.70;1.52;;;19.30;99.90;;;;;;4985341;28;20061;-87
2023/09/04 08:42:04;;;;;;;2.55;2.03;;;19.30;99.90;;;;;;4983552;28;20030;-85
2023/09/04 08:44:31;;;;;;;2.92;2.25;;;19.40;99.90;;;;;;4968305;28;20116;-88
2023/09/04 08:46:58;;;;;;;3.08;2.88;;;19.40;99.90;;;;;;4973618;28;20033;-88
2023/09/04 08:49:25;;;;;;;2.08;1.88;;;19.40;99.90;;;;;;4962650;28;20027;-87
2023/09/04 08:51:52;;;;;;;3.03;1.77;;;19.50;99.90;;;;;;4968884;28;20817;-87
2023/09/04 08:54:18;;;;;;;3.65;2.20;;;19.50;99.90;;;;;;4979629;28;20035;-87
2023/09/04 08:56:44;;;;;;;2.70;2.50;;;19.50;99.90;;;;;;4975423;28;20158;-86
2023/09/04 08:59:10;;;;;;;2.92;2.63;;;19.50;99.90;;;;;;4992406;28;20022;-86
2023/09/04 09:01:37;;;;;;;3.40;2.28;;;19.60;99.90;;;;;;4985067;28;20038;-86
2023/09/04 09:04:05;;;;;;;2.72;2.03;;;19.60;99.90;;;;;;4982378;28;20030;-85
2023/09/04 09:06:31;;;;;;;2.40;2.20;;;19.60;99.90;;;;;;4983375;28;20026;-86
2023/09/04 09:08:59;;;;;;;2.00;1.83;;;19.60;99.90;;;;;;4983947;28;20046;-87
2023/09/04 09:11:24;;;;;;;2.65;2.08;;;19.70;99.90;;;;;;4987444;28;20073;-86
2023/09/04 09:13:50;;;;;;;2.85;2.40;;;19.70;99.90;;;;;;4994742;28;20034;-87
2023/09/04 09:16:19;;;;;;;3.22;2.92;;;19.80;99.90;;;;;;4984125;28;20113;-86
2023/09/04 09:18:46;;;;;;;2.35;1.90;;;19.80;99.90;;;;;;4981163;28;20027;-87
2023/09/04 09:21:33;;;;;;;2.13;1.67;;;19.90;99.90;;;;;;4974876;28;20024;-87
2023/09/04 09:24:18;;;;;;;2.42;2.13;;;19.80;99.90;;;;;;4982355;28;20483;-87
2023/09/04 09:26:46;;;;;;;4.75;2.10;;;19.90;99.90;;;;;;4978303;28;20049;-86
2023/09/04 09:29:13;;;;;;;2.17;1.98;;;20.00;99.90;;;;;;4972910;28;20023;-86
2023/09/04 09:31:42;;;;;;;2.35;1.67;;;20.00;99.90;;;;;;4975037;28;20043;-87
2023/09/04 09:34:10;;;;;;;2.00;1.80;;;20.00;99.90;;;;;;4978795;28;20102;-87
2023/09/04 09:36:36;;;;;;;2.88;2.00;;;20.00;99.90;;;;;;4979819;28;20725;-87
2023/09/04 09:39:04;;;;;;;4.05;2.40;;;20.10;99.90;;;;;;4973645;28;20089;-87
2023/09/04 09:41:30;;;;;;;2.00;1.80;;;20.10;99.90;;;;;;4971709;28;20027;-87
2023/09/04 09:43:59;;;;;;;3.35;2.20;;;20.10;99.90;;;;;;4986182;28;20482;-87
2023/09/04 09:46:24;;;;;;;2.67;2.08;;;20.10;99.90;;;;;;4991275;28;20630;-87
2023/09/04 09:48:50;;;;;;;3.45;1.80;;;20.10;99.90;;;;;;4975921;28;20137;-88
2023/09/04 09:51:16;;;;;;;2.47;2.00;;;20.20;99.90;;;;;;4981327;28;20023;-87
2023/09/04 09:53:50;;;;;;;2.45;1.95;;;20.20;99.90;;;;;;4984540;28;20023;-86
2023/09/04 09:56:17;;;;;;;2.35;1.75;;;20.20;99.90;;;;;;4977270;28;20077;-86
2023/09/04 09:58:46;;;;;;;1.98;1.88;;;20.30;99.90;;;;;;4984296;28;20401;-86
2023/09/04 10:01:16;;;;;;;2.55;1.80;;;20.30;99.90;;;;;;4985775;28;20101;-88
2023/09/04 10:03:44;;;;;;;3.92;1.35;;;20.40;99.90;;;;;;4972473;28;20027;-87
2023/09/04 10:06:14;;;;;;;1.40;1.30;;;20.40;99.90;;;;;;4980509;28;20137;-86
2023/09/04 10:08:47;;;;;;;1.50;1.40;;;20.40;99.90;;;;;;4980840;28;20486;-87
2023/09/04 10:11:14;;;;;;;1.52;1.33;;;20.40;99.90;;;;;;4985884;28;20033;-86
2023/09/04 10:14:08;;;;;;;2.03;1.17;;;20.30;99.90;;;;;;4979797;28;20037;-86
2023/09/04 10:16:42;;;;;;;2.08;1.30;;;20.40;99.90;;;;;;4982585;28;20034;-84
2023/09/04 10:19:12;;;;;;;2.83;1.20;;;20.40;99.90;;;;;;4986527;28;20022;-84
2023/09/04 10:21:43;;;;;;;2.60;1.20;;;20.40;99.90;;;;;;4984962;28;20079;-82
2023/09/04 10:24:13;;;;;;;2.63;1.02;;;20.40;99.90;;;;;;4971365;28;20023;-84
2023/09/04 10:27:00;;;;;;;1.05;0.93;;;20.40;99.90;;;;;;4975989;28;20038;-85
2023/09/04 10:29:28;;;;;;;1.20;1.05;;;20.40;99.90;;;;;;4981990;28;20172;-87
2023/09/04 10:31:55;;;;;;;1.48;1.10;;;20.40;99.90;;;;;;4974825;28;20031;-86
2023/09/04 10:34:22;;;;;;;1.55;1.00;;;20.40;99.90;;;;;;4985480;28;20027;-86
2023/09/04 10:36:48;;;;;;;2.53;1.40;;;20.40;99.90;;;;;;4985441;28;20150;-87
2023/09/04 10:39:14;;;;;;;1.35;1.20;;;20.40;99.90;;;;;;4980693;28;20037;-86
2023/09/04 10:41:40;;;;;;;1.15;1.00;;;20.50;99.90;;;;;;4984247;28;20673;-86
2023/09/04 10:44:08;;;;;;;3.05;1.02;;;20.50;99.90;;;;;;4986451;28;20122;-86
2023/09/04 10:46:34;;;;;;;2.85;1.20;;;20.60;99.90;;;;;;4978860;28;20027;-83
2023/09/04 10:48:59;;;;;;;2.67;1.70;;;20.60;99.90;;;;;;4983219;28;20035;-86
2023/09/04 10:51:32;;;;;;;1.50;1.35;;;20.70;99.90;;;;;;4981865;28;20042;-86
2023/09/04 10:54:03;;;;;;;1.85;1.50;;;20.80;99.90;;;;;;4972698;28;20034;-87
2023/09/04 10:56:49;;;;;;;1.17;1.08;;;20.80;99.90;;;;;;4978190;28;20031;-85
2023/09/04 10:59:14;;;;;;;1.90;1.25;;;20.80;99.90;;;;;;4986794;28;20449;-86
2023/09/04 11:01:40;;;;;;;1.63;1.27;;;20.70;99.90;;;;;;4969766;28;20038;-85
2023/09/04 11:04:08;;;;;;;3.15;1.33;;;20.70;99.90;;;;;;4984592;28;20417;-86
2023/09/04 11:06:38;;;;;;;2.25;1.45;;;20.80;99.90;;;;;;4980289;28;20037;-86
2023/09/04 11:09:04;;;;;;;1.48;1.23;;;20.80;99.90;;;;;;4981622;28;20395;-88
2023/09/04 11:11:31;;;;;;;1.25;1.02;;;20.80;99.90;;;;;;4975132;28;20027;-85
2023/09/04 11:14:06;;;;;;;1.38;1.27;;;20.80;99.90;;;;;;4974464;28;20058;-86
2023/09/04 11:16:48;;;;;;;1.17;1.02;;;20.90;99.90;;;;;;4984293;28;20027;-86
2023/09/04 11:19:16;;;;;;;1.13;1.02;;;20.90;99.90;;;;;;4985632;28;20018;-84
2023/09/04 11:21:44;;;;;;;1.98;1.23;;;20.90;99.90;;;;;;4969398;28;20082;-85
2023/09/04 11:24:10;;;;;;;2.45;1.23;;;21.00;99.90;;;;;;4974769;28;20135;-82
2023/09/04 11:26:36;;;;;;;2.50;1.52;;;21.00;99.90;;;;;;4979254;28;20058;-80
2023/09/04 11:29:03;;;;;;;2.63;1.40;;;21.00;99.90;;;;;;4986042;28;20030;-81
2023/09/04 11:31:31;;;;;;;3.08;1.45;;;21.00;99.90;;;;;;4983400;28;20694;-81
2023/09/04 11:33:57;;;;;;;5.65;1.40;;;21.10;99.90;;;;;;4989110;28;20030;-81
2023/09/04 11:36:24;;;;;;;1.77;1.20;;;21.00;99.90;;;;;;4981945;28;20141;-82
2023/09/04 11:39:04;;;;;;;1.00;0.90;;;21.10;99.90;;;;;;4973515;28;20106;-81
2023/09/04 11:41:31;;;;;;;1.55;1.08;;;21.20;99.90;;;;;;4982112;28;20110;-80
2023/09/04 11:43:56;;;;;;;2.70;1.30;;;21.20;99.90;;;;;;4993921;28;20131;-80
2023/09/04 11:46:22;;;;;;;1.42;1.33;;;21.20;99.90;;;;;;4996525;28;20015;-80
2023/09/04 11:48:48;;;;;;;2.10;1.23;;;21.20;99.90;;;;;;5004455;28;20200;-80
2023/09/04 11:51:14;;;;;;;0.95;0.93;;;21.20;99.90;;;;;;4999815;28;20026;-81
2023/09/04 11:53:40;;;;;;;1.88;1.40;;;21.30;99.90;;;;;;4988478;28;20041;-81
2023/09/04 11:56:05;;;;;;;1.90;1.33;;;21.30;99.90;;;;;;4990406;28;20030;-80
2023/09/04 11:58:32;;;;;;;2.45;1.65;;;21.30;99.90;;;;;;4991258;28;20046;-80
2023/09/04 12:00:57;;;;;;;2.55;1.05;;;21.30;99.90;;;;;;4982701;28;20085;-80
2023/09/04 12:03:23;;;;;;;1.10;1.00;;;21.40;99.90;;;;;;4979364;28;20027;-81
2023/09/04 12:05:51;;;;;;;1.40;1.30;;;21.40;99.90;;;;;;4983623;28;20037;-81
2023/09/04 12:08:17;;;;;;;2.25;1.42;;;21.40;99.90;;;;;;4985385;28;20026;-81
2023/09/04 12:10:43;;;;;;;1.90;1.42;;;21.40;99.90;;;;;;4985291;28;20189;-81
2023/09/04 12:13:09;;;;;;;4.40;2.10;;;21.50;99.90;;;;;;4983107;28;20533;-80
2023/09/04 12:15:34;;;;;;;2.72;1.80;;;21.50;99.90;;;;;;4981650;28;20063;-82
2023/09/04 12:18:02;;;;;;;1.92;1.65;;;21.60;99.90;;;;;;4989132;28;20042;-81
2023/09/04 12:20:50;;;;;;;4.43;1.40;;;21.60;99.90;;;;;;4964959;28;20110;-81
2023/09/04 12:23:15;;;;;;;2.92;1.20;;;21.70;99.90;;;;;;4984670;28;20023;-81
2023/09/04 12:25:43;;;;;;;1.40;1.23;;;21.70;99.90;;;;;;4992305;28;20041;-82
2023/09/04 12:28:13;;;;;;;2.95;1.42;;;21.80;99.90;;;;;;4980101;28;20018;-81
2023/09/04 12:30:44;;;;;;;3.38;1.35;;;21.80;99.90;;;;;;4982537;28;20174;-81
2023/09/04 12:33:11;;;;;;;2.53;1.40;;;21.90;99.90;;;;;;4971437;28;20510;-82
2023/09/04 12:35:37;;;;;;;3.15;1.55;;;22.00;99.90;;;;;;4990352;28;20138;-82
2023/09/04 12:38:04;;;;;;;1.90;1.38;;;22.00;99.90;;;;;;4981672;28;20042;-82
2023/09/04 12:40:29;;;;;;;2.08;1.23;;;22.00;99.90;;;;;;4975783;28;20027;-80
2023/09/04 12:42:55;;;;;;;1.88;1.77;;;22.00;99.90;;;;;;4979427;28;20026;-81